createdAt,value
2023-10-20T00:01:34.731Z,5.60
2023-10-20T00:04:04.792Z,5.63
2023-10-20T00:06:31.686Z,5.50
2023-10-20T00:08:59.564Z,6.50
2023-10-20T00:11:27.296Z,6.13
2023-10-20T00:13:55.286Z,5.83
2023-10-20T00:16:30.039Z,6.33
2023-10-20T00:18:57.894Z,6.07
2023-10-20T00:21:27.562Z,5.93
2023-10-20T00:23:54.400Z,5.70
2023-10-20T00:26:21.137Z,6.13
2023-10-20T00:28:47.805Z,6.33
2023-10-20T00:31:14.754Z,5.60
2023-10-20T00:33:41.536Z,5.80
2023-10-20T00:36:09.634Z,5.53
2023-10-20T00:38:36.623Z,6.43
2023-10-20T00:41:03.491Z,6.43
2023-10-20T00:43:37.285Z,6.40
2023-10-20T00:46:05.969Z,6.20
2023-10-20T00:48:34.009Z,5.60
2023-10-20T00:51:06.854Z,5.70
2023-10-20T00:53:36.287Z,5.73
2023-10-20T00:56:05.821Z,6.27
2023-10-20T00:58:33.386Z,5.60
2023-10-20T01:01:00.346Z,6.03
2023-10-20T01:03:28.766Z,5.77
2023-10-20T01:05:57.390Z,5.47
2023-10-20T01:08:24.762Z,4.93
2023-10-20T01:10:54.477Z,5.20
2023-10-20T01:13:23.106Z,5.17
2023-10-20T01:15:50.471Z,5.63
2023-10-20T01:18:17.332Z,5.13
2023-10-20T01:20:46.177Z,5.60
2023-10-20T01:23:12.941Z,5.90
2023-10-20T01:25:39.620Z,5.87
2023-10-20T01:28:06.464Z,5.00
2023-10-20T01:30:33.212Z,5.47
2023-10-20T01:33:00.766Z,5.20
2023-10-20T01:35:27.692Z,5.33
2023-10-20T01:37:54.513Z,5.67
2023-10-20T01:40:21.311Z,5.40
2023-10-20T01:42:47.988Z,5.43
2023-10-20T01:45:14.658Z,5.43
2023-10-20T01:47:41.691Z,5.20
2023-10-20T01:50:09.121Z,4.80
2023-10-20T01:52:36.059Z,5.47
2023-10-20T01:55:02.812Z,5.67
2023-10-20T01:57:29.552Z,5.80
2023-10-20T01:59:56.212Z,5.13
2023-10-20T02:02:23.073Z,5.70
2023-10-20T02:04:49.767Z,5.30
2023-10-20T02:07:16.569Z,5.50
2023-10-20T02:09:43.321Z,5.30
2023-10-20T02:12:11.613Z,5.73
2023-10-20T02:14:38.372Z,6.03
2023-10-20T02:17:05.238Z,5.60
2023-10-20T02:19:32.098Z,4.63
2023-10-20T02:22:00.822Z,6.00
2023-10-20T02:24:27.778Z,4.77
2023-10-20T02:26:55.094Z,5.40
2023-10-20T02:29:22.029Z,5.80
2023-10-20T02:31:48.726Z,4.90
2023-10-20T02:34:15.430Z,5.63
2023-10-20T02:36:43.613Z,5.17
2023-10-20T02:39:11.853Z,5.77
2023-10-20T02:41:38.509Z,5.33
2023-10-20T02:44:05.559Z,6.40
2023-10-20T02:46:32.409Z,6.10
2023-10-20T02:48:59.453Z,4.93
2023-10-20T02:51:26.217Z,5.77
2023-10-20T02:53:52.906Z,5.87
2023-10-20T02:56:21.064Z,5.23
2023-10-20T02:58:48.583Z,5.73
2023-10-20T03:01:18.363Z,5.73
2023-10-20T03:03:45.853Z,6.37
2023-10-20T03:06:12.875Z,5.03
2023-10-20T03:08:40.898Z,5.67
2023-10-20T03:11:09.508Z,4.93
2023-10-20T03:13:36.557Z,5.13
2023-10-20T03:16:03.336Z,4.70
2023-10-20T03:18:30.081Z,4.57
2023-10-20T03:21:03.902Z,5.50
2023-10-20T03:23:32.173Z,5.00
2023-10-20T03:25:58.970Z,5.93
2023-10-20T03:28:25.808Z,4.80
2023-10-20T03:30:52.832Z,5.00
2023-10-20T03:33:20.330Z,5.50
2023-10-20T03:35:47.525Z,5.10
2023-10-20T03:38:15.738Z,4.77
2023-10-20T03:40:43.119Z,4.70
2023-10-20T03:43:11.057Z,4.77
2023-10-20T03:45:53.249Z,4.53
2023-10-20T03:48:24.867Z,5.10
2023-10-20T03:50:53.344Z,4.63
2023-10-20T03:53:23.671Z,4.77
2023-10-20T03:56:00.763Z,4.40
2023-10-20T03:58:29.761Z,5.00
2023-10-20T04:00:58.740Z,4.37
2023-10-20T04:03:28.762Z,4.57
2023-10-20T04:05:55.512Z,4.40
2023-10-20T04:08:24.095Z,4.63
2023-10-20T04:11:00.622Z,4.53
2023-10-20T04:13:30.653Z,4.83
2023-10-20T04:15:57.567Z,4.23
2023-10-20T04:18:24.706Z,3.93
2023-10-20T04:20:52.034Z,3.83
2023-10-20T04:23:19.004Z,3.67
2023-10-20T04:25:55.117Z,4.63
2023-10-20T04:28:33.537Z,4.10
2023-10-20T04:31:19.204Z,4.10
2023-10-20T04:34:04.590Z,4.30
2023-10-20T04:36:49.945Z,4.23
2023-10-20T04:39:35.559Z,5.23
2023-10-20T04:42:04.727Z,4.33
2023-10-20T04:44:49.725Z,4.90
2023-10-20T04:47:26.291Z,5.57
2023-10-20T04:50:16.548Z,4.93
2023-10-20T04:53:03.148Z,4.63
2023-10-20T04:55:32.763Z,4.50
2023-10-20T04:58:22.811Z,5.87
2023-10-20T05:00:57.887Z,5.90
2023-10-20T05:03:32.901Z,5.97
2023-10-20T05:06:20.812Z,4.97
2023-10-20T05:08:48.689Z,5.17
2023-10-20T05:11:16.693Z,6.17
2023-10-20T05:13:43.781Z,5.97
2023-10-20T05:16:10.839Z,4.93
2023-10-20T05:18:41.358Z,5.40
2023-10-20T05:21:14.880Z,6.83
2023-10-20T05:23:42.413Z,6.07
2023-10-20T05:26:12.371Z,6.40
2023-10-20T05:28:39.174Z,5.97
2023-10-20T05:31:06.116Z,6.87
2023-10-20T05:33:32.861Z,7.57
2023-10-20T05:36:05.072Z,7.07
2023-10-20T05:38:33.345Z,6.20
2023-10-20T05:41:01.014Z,5.80
2023-10-20T05:43:28.806Z,6.47
2023-10-20T05:45:55.643Z,6.70
2023-10-20T05:48:22.519Z,7.13
2023-10-20T05:51:01.140Z,8.63
2023-10-20T05:53:28.001Z,7.57
2023-10-20T05:55:54.747Z,8.50
2023-10-20T05:58:21.764Z,8.43
2023-10-20T06:01:02.411Z,8.13
2023-10-20T06:03:30.541Z,8.30
2023-10-20T06:06:01.897Z,9.30
2023-10-20T06:08:30.480Z,9.17
2023-10-20T06:11:04.835Z,8.33
2023-10-20T06:13:33.972Z,8.77
2023-10-20T06:16:12.419Z,7.70
2023-10-20T06:18:40.838Z,7.93
2023-10-20T06:21:15.182Z,9.17
2023-10-20T06:23:42.377Z,8.57
2023-10-20T06:26:09.312Z,8.50
2023-10-20T06:28:35.946Z,8.13
2023-10-20T06:31:16.640Z,9.90
2023-10-20T06:33:44.607Z,9.07
2023-10-20T06:36:19.847Z,9.80
2023-10-20T06:38:46.730Z,9.73
2023-10-20T06:41:17.343Z,8.97
2023-10-20T06:43:48.451Z,8.93
2023-10-20T06:46:15.433Z,7.73
2023-10-20T06:48:42.182Z,8.17
2023-10-20T06:51:08.876Z,9.77
2023-10-20T06:53:35.737Z,8.80
2023-10-20T06:56:15.271Z,9.47
2023-10-20T06:58:43.632Z,8.87
2023-10-20T07:01:10.330Z,8.30
2023-10-20T07:03:37.133Z,8.63
2023-10-20T07:06:08.610Z,8.17
2023-10-20T07:08:35.563Z,9.43
2023-10-20T07:11:03.772Z,6.80
2023-10-20T07:13:32.896Z,6.83
2023-10-20T07:15:59.765Z,5.47
2023-10-20T07:18:26.415Z,5.70
2023-10-20T07:20:56.068Z,6.37
2023-10-20T07:23:24.646Z,5.33
2023-10-20T07:25:51.444Z,4.77
2023-10-20T07:28:18.239Z,5.37
2023-10-20T07:30:44.906Z,4.97
2023-10-20T07:33:12.213Z,5.03
2023-10-20T07:35:40.204Z,5.53
2023-10-20T07:38:07.004Z,5.80
2023-10-20T07:40:36.449Z,6.27
2023-10-20T07:43:07.431Z,6.20
2023-10-20T07:45:43.792Z,6.90
2023-10-20T07:48:12.206Z,6.50
2023-10-20T07:50:39.193Z,6.00
2023-10-20T07:53:06.561Z,5.40
2023-10-20T07:55:33.347Z,6.13
2023-10-20T07:58:00.166Z,5.97
2023-10-20T08:00:26.866Z,6.83
2023-10-20T08:02:55.593Z,6.93
2023-10-20T08:05:26.815Z,7.43
2023-10-20T08:07:54.536Z,5.97
2023-10-20T08:10:23.047Z,6.13
2023-10-20T08:12:50.508Z,6.23
2023-10-20T08:15:17.625Z,5.70
2023-10-20T08:17:46.824Z,5.80
2023-10-20T08:20:14.168Z,5.60
2023-10-20T08:22:41.732Z,5.90
2023-10-20T08:25:10.337Z,5.53
2023-10-20T08:27:37.939Z,5.13
2023-10-20T08:30:06.269Z,4.80
2023-10-20T08:32:33.433Z,5.17
2023-10-20T08:35:00.350Z,5.57
2023-10-20T08:37:27.277Z,4.53
2023-10-20T08:39:55.697Z,5.73
2023-10-20T08:42:23.162Z,6.20
2023-10-20T08:44:51.023Z,5.60
2023-10-20T08:47:18.600Z,6.37
2023-10-20T08:49:47.255Z,5.80
2023-10-20T08:52:14.729Z,6.70
2023-10-20T08:54:42.410Z,6.73
2023-10-20T08:57:09.613Z,5.87
2023-10-20T08:59:37.765Z,6.20
2023-10-20T09:02:05.320Z,7.07
2023-10-20T09:04:32.420Z,5.97
2023-10-20T09:07:02.822Z,7.77
2023-10-20T09:09:30.617Z,7.50
2023-10-20T09:11:57.419Z,7.63
2023-10-20T09:14:26.118Z,6.47
2023-10-20T09:16:55.151Z,6.47
2023-10-20T09:19:21.845Z,7.40
2023-10-20T09:21:48.607Z,6.73
2023-10-20T09:24:16.199Z,6.80
2023-10-20T09:26:43.065Z,7.23
2023-10-20T09:29:10.834Z,6.70
2023-10-20T09:31:38.926Z,7.60
2023-10-20T09:34:06.045Z,7.40
2023-10-20T09:36:34.044Z,7.23
2023-10-20T09:39:02.285Z,6.37
2023-10-20T09:41:30.365Z,6.53
2023-10-20T09:44:08.249Z,6.50
2023-10-20T09:46:38.141Z,6.70
2023-10-20T09:49:15.872Z,6.53
2023-10-20T09:51:49.435Z,7.03
2023-10-20T09:54:20.289Z,7.13
2023-10-20T09:56:47.965Z,6.60
2023-10-20T09:59:22.148Z,6.10
2023-10-20T10:01:49.146Z,6.27
2023-10-20T10:04:15.858Z,6.47
2023-10-20T10:06:46.865Z,7.03
2023-10-20T10:09:16.372Z,6.23
2023-10-20T10:11:46.951Z,6.33
2023-10-20T10:14:24.386Z,6.27
2023-10-20T10:16:56.325Z,5.80
2023-10-20T10:19:28.233Z,6.47
2023-10-20T10:22:02.612Z,5.03
2023-10-20T10:24:35.941Z,5.70
2023-10-20T10:27:08.011Z,5.30
2023-10-20T10:29:52.244Z,5.13
2023-10-20T10:32:20.913Z,4.43
2023-10-20T10:34:50.568Z,4.20
2023-10-20T10:37:36.495Z,5.27
2023-10-20T10:40:10.712Z,4.23
2023-10-20T10:42:41.599Z,4.63
2023-10-20T10:45:16.056Z,4.37
2023-10-20T10:47:44.806Z,4.53
2023-10-20T10:50:11.706Z,4.60
2023-10-20T10:52:38.421Z,3.90
2023-10-20T10:55:05.478Z,4.30
2023-10-20T10:57:32.570Z,3.97
2023-10-20T11:00:01.856Z,4.17
2023-10-20T11:02:29.514Z,3.67
2023-10-20T11:04:56.405Z,3.93
2023-10-20T11:07:23.813Z,3.80
2023-10-20T11:09:52.528Z,4.07
2023-10-20T11:12:19.226Z,4.17
2023-10-20T11:14:45.919Z,4.20
2023-10-20T11:17:14.933Z,3.93
2023-10-20T11:19:42.431Z,3.63
2023-10-20T11:22:19.105Z,3.70
2023-10-20T11:24:53.850Z,3.43
2023-10-20T11:27:21.115Z,3.57
2023-10-20T11:29:58.326Z,3.97
2023-10-20T11:32:27.278Z,4.13
2023-10-20T11:34:54.325Z,3.90
2023-10-20T11:37:21.044Z,3.50
2023-10-20T11:39:48.337Z,3.33
2023-10-20T11:42:15.248Z,4.00
2023-10-20T11:44:42.193Z,3.37
2023-10-20T11:47:08.909Z,3.27
2023-10-20T11:49:35.540Z,4.10
2023-10-20T11:52:08.695Z,4.10
2023-10-20T11:54:35.496Z,4.80
2023-10-20T11:57:03.093Z,3.57
2023-10-20T11:59:29.856Z,3.67
2023-10-20T12:01:56.745Z,3.13
2023-10-20T12:04:23.452Z,3.80
2023-10-20T12:06:50.168Z,3.07
2023-10-20T12:09:20.953Z,3.13
2023-10-20T12:11:48.458Z,3.37
2023-10-20T12:14:16.299Z,2.57
2023-10-20T12:16:44.010Z,2.70
2023-10-20T12:19:10.797Z,2.00
2023-10-20T12:21:37.505Z,2.47
2023-10-20T12:24:05.573Z,2.17
2023-10-20T12:26:32.370Z,2.37
2023-10-20T12:28:59.062Z,2.53
2023-10-20T12:31:26.034Z,1.93
2023-10-20T12:33:52.893Z,2.43
2023-10-20T12:36:19.648Z,2.50
2023-10-20T12:38:46.758Z,2.47
2023-10-20T12:41:17.084Z,2.37
2023-10-20T12:43:45.722Z,2.80
2023-10-20T12:46:12.867Z,2.47
2023-10-20T12:48:42.533Z,2.77
2023-10-20T12:51:13.656Z,3.20
2023-10-20T12:53:42.035Z,3.30
2023-10-20T12:56:09.073Z,2.13
2023-10-20T12:58:39.683Z,3.17
2023-10-20T13:01:07.711Z,2.30
2023-10-20T13:03:34.753Z,2.47
2023-10-20T13:06:01.748Z,2.30
2023-10-20T13:08:28.616Z,2.33
2023-10-20T13:10:55.350Z,2.37
2023-10-20T13:13:22.127Z,1.97
2023-10-20T13:15:48.811Z,2.03
2023-10-20T13:18:16.860Z,2.30
2023-10-20T13:20:46.713Z,2.23
2023-10-20T13:23:14.064Z,2.20
2023-10-20T13:25:40.824Z,2.07
2023-10-20T13:31:16.524Z,1.90
2023-10-20T13:33:46.397Z,1.90
2023-10-20T13:36:13.260Z,2.77
2023-10-20T13:38:40.213Z,2.23
2023-10-20T13:41:07.073Z,2.33
2023-10-20T13:43:36.777Z,1.87
2023-10-20T13:48:55.805Z,2.13
2023-10-20T13:51:22.526Z,2.77
2023-10-20T13:53:49.191Z,3.07
2023-10-20T13:56:16.790Z,1.97
2023-10-20T13:58:43.523Z,2.33
2023-10-20T14:01:10.333Z,2.43
2023-10-20T14:03:37.356Z,2.13
2023-10-20T14:06:07.856Z,2.37
2023-10-20T14:08:35.411Z,2.20
2023-10-20T14:11:05.292Z,1.97
2023-10-20T14:16:25.875Z,2.20
2023-10-20T14:18:52.646Z,2.40
2023-10-20T14:21:19.371Z,2.40
2023-10-20T14:23:46.013Z,1.93
2023-10-20T14:26:12.789Z,2.37
2023-10-20T14:28:39.512Z,1.90
2023-10-20T14:31:07.039Z,2.07
2023-10-20T14:33:35.394Z,2.03
2023-10-20T14:36:02.774Z,1.90
2023-10-20T14:38:33.424Z,1.80
2023-10-20T14:41:08.605Z,1.57
2023-10-20T14:43:37.225Z,2.23
2023-10-20T14:46:06.027Z,2.10
2023-10-20T14:48:34.273Z,1.73
2023-10-20T14:51:05.494Z,2.27
2023-10-20T14:53:32.262Z,2.13
2023-10-20T14:55:58.964Z,2.03
2023-10-20T15:01:16.983Z,2.17
2023-10-20T15:03:44.399Z,2.20
2023-10-20T15:06:11.292Z,1.70
2023-10-20T15:08:38.400Z,1.63
2023-10-20T15:11:09.018Z,2.17
2023-10-20T15:13:36.346Z,2.30
2023-10-20T15:16:06.222Z,2.07
2023-10-20T15:18:33.168Z,2.60
2023-10-20T15:21:00.176Z,2.40
2023-10-20T15:23:27.076Z,2.50
2023-10-20T15:25:53.824Z,2.30
2023-10-20T15:28:22.116Z,1.77
2023-10-20T15:30:49.280Z,2.37
2023-10-20T15:33:18.979Z,2.10
2023-10-20T15:35:47.748Z,2.00
2023-10-20T15:38:14.663Z,1.87
2023-10-20T15:40:41.753Z,1.87
2023-10-20T15:43:08.499Z,1.70
2023-10-20T15:45:35.193Z,3.03
2023-10-20T15:48:07.767Z,2.10
2023-10-20T15:51:05.405Z,3.70
2023-10-20T15:53:57.700Z,2.37
2023-10-20T15:59:15.774Z,4.03
2023-10-20T16:01:42.762Z,2.13
2023-10-20T16:04:09.547Z,3.00
2023-10-20T16:06:36.513Z,2.10
2023-10-20T16:09:06.835Z,2.43
2023-10-20T16:11:34.222Z,2.00
2023-10-20T16:14:04.366Z,2.57
2023-10-20T16:16:32.412Z,2.50
2023-10-20T16:18:59.221Z,2.23
2023-10-20T16:21:26.006Z,2.70
2023-10-20T16:23:52.766Z,2.93
2023-10-20T16:26:19.545Z,2.30
2023-10-20T16:28:46.193Z,2.23
2023-10-20T16:31:13.156Z,2.10
2023-10-20T16:33:39.922Z,1.87
2023-10-20T16:39:27.226Z,2.37
2023-10-20T16:41:54.032Z,2.23
2023-10-20T16:44:20.796Z,2.20
2023-10-20T16:46:48.320Z,1.83
2023-10-20T16:49:15.073Z,2.33
2023-10-20T16:51:44.725Z,2.70
2023-10-20T16:54:12.496Z,1.73
2023-10-20T16:56:39.368Z,2.00
2023-10-20T17:01:57.563Z,2.17
2023-10-20T17:07:30.202Z,3.07
2023-10-20T17:09:58.938Z,1.97
2023-10-20T17:12:25.709Z,2.53
2023-10-20T17:15:06.479Z,2.43
2023-10-20T17:17:33.294Z,2.00
2023-10-20T17:20:00.067Z,1.80
2023-10-20T17:22:30.409Z,1.70
2023-10-20T17:24:57.138Z,2.00
2023-10-20T17:27:23.854Z,1.73
2023-10-20T17:29:51.476Z,1.90
2023-10-20T17:32:20.042Z,1.80
2023-10-20T17:34:47.167Z,2.07
2023-10-20T17:37:18.393Z,2.10
2023-10-20T17:39:45.184Z,2.07
2023-10-20T17:42:11.953Z,2.33
2023-10-20T17:44:41.870Z,2.40
2023-10-20T17:48:00.074Z,2.80
2023-10-20T17:50:26.798Z,1.83
2023-10-20T17:53:18.479Z,1.83
2023-10-20T17:55:49.306Z,2.00
2023-10-20T17:58:17.012Z,2.10
2023-10-20T18:00:46.095Z,2.47
2023-10-20T18:03:13.284Z,1.83
2023-10-20T18:05:40.672Z,2.00
2023-10-20T18:08:07.735Z,2.10
2023-10-20T18:10:35.765Z,2.70
2023-10-20T18:13:02.486Z,1.43
2023-10-20T18:15:29.083Z,1.90
2023-10-20T18:17:56.076Z,2.30
2023-10-20T18:23:21.523Z,2.10
2023-10-20T18:25:48.463Z,2.00
2023-10-20T18:28:15.255Z,1.80
2023-10-20T18:30:42.435Z,2.33
2023-10-20T18:33:09.638Z,1.87
2023-10-20T18:35:37.868Z,1.90
2023-10-20T18:38:07.234Z,2.30
2023-10-20T18:40:37.252Z,1.77
2023-10-20T18:46:00.269Z,1.80
2023-10-20T18:48:28.191Z,1.90
2023-10-20T18:51:07.844Z,2.30
2023-10-20T18:53:36.183Z,1.80
2023-10-20T18:56:06.447Z,2.17
2023-10-20T18:58:33.086Z,2.30
2023-10-20T19:01:00.906Z,2.20
2023-10-20T19:03:27.804Z,2.30
2023-10-20T19:05:54.692Z,2.90
2023-10-20T19:08:21.916Z,2.60
2023-10-20T19:10:53.199Z,2.40
2023-10-20T19:13:23.182Z,2.17
2023-10-20T19:15:53.973Z,3.00
2023-10-20T19:18:21.617Z,3.87
2023-10-20T19:20:48.655Z,2.40
2023-10-20T19:23:16.302Z,2.57
2023-10-20T19:25:43.085Z,2.63
2023-10-20T19:28:11.051Z,2.60
2023-10-20T19:30:38.052Z,2.17
2023-10-20T19:33:05.188Z,1.93
2023-10-20T19:35:32.582Z,2.57
2023-10-20T19:38:00.318Z,2.50
2023-10-20T19:40:27.678Z,2.50
2023-10-20T19:42:54.911Z,2.27
2023-10-20T19:45:21.577Z,2.17
2023-10-20T19:47:48.719Z,2.47
2023-10-20T19:50:15.854Z,1.50
2023-10-20T19:52:42.762Z,2.47
2023-10-20T19:55:10.123Z,2.63
2023-10-20T19:57:36.885Z,2.10
2023-10-20T20:00:04.602Z,1.73
2023-10-20T20:02:31.956Z,2.00
2023-10-20T20:04:59.049Z,1.87
2023-10-20T20:07:27.893Z,2.00
2023-10-20T20:09:55.713Z,2.30
2023-10-20T20:12:25.352Z,1.90
2023-10-20T20:14:52.226Z,2.03
2023-10-20T20:17:19.807Z,1.93
2023-10-20T20:19:46.624Z,1.93
2023-10-20T20:22:13.309Z,2.17
2023-10-20T20:24:39.992Z,1.80
2023-10-20T20:27:06.776Z,2.10
2023-10-20T20:29:35.206Z,1.67
2023-10-20T20:32:02.045Z,1.43
2023-10-20T20:34:28.741Z,1.80
2023-10-20T20:36:55.372Z,2.50
2023-10-20T20:39:22.037Z,2.30
2023-10-20T20:41:48.669Z,1.97
2023-10-20T20:44:23.245Z,2.17
2023-10-20T20:46:49.972Z,2.30
2023-10-20T20:49:20.570Z,1.70
2023-10-20T20:51:47.871Z,2.03
2023-10-20T20:54:15.093Z,1.80
2023-10-20T20:56:42.028Z,2.10
2023-10-20T20:59:09.594Z,2.37
2023-10-20T21:04:29.185Z,2.20
2023-10-20T21:06:55.934Z,2.10
2023-10-20T21:09:24.702Z,1.60
2023-10-20T21:11:51.491Z,1.70
2023-10-20T21:14:18.645Z,1.93
2023-10-20T21:16:45.603Z,1.83
2023-10-20T21:19:12.413Z,2.07
2023-10-20T21:21:39.142Z,2.30
2023-10-20T21:24:06.883Z,1.70
2023-10-20T21:26:33.798Z,1.90
2023-10-20T21:29:00.544Z,1.97
2023-10-20T21:31:27.588Z,1.60
2023-10-20T21:33:54.332Z,2.13
2023-10-20T21:36:21.042Z,1.90
2023-10-20T21:38:47.785Z,2.37
2023-10-20T21:41:14.497Z,1.93
2023-10-20T21:43:41.258Z,1.80
2023-10-20T21:46:08.376Z,1.77
2023-10-20T21:48:35.212Z,1.60
2023-10-20T21:51:03.808Z,2.00
2023-10-20T21:53:33.908Z,2.00
2023-10-20T21:56:12.882Z,2.13
2023-10-20T21:58:39.677Z,2.00
2023-10-20T22:01:07.796Z,1.93
2023-10-20T22:03:34.704Z,2.03
2023-10-20T22:06:02.440Z,2.03
2023-10-20T22:08:29.235Z,2.30
2023-10-20T22:10:55.948Z,2.23
2023-10-20T22:13:22.788Z,2.10
2023-10-20T22:15:49.497Z,2.53
2023-10-20T22:18:16.822Z,2.40
2023-10-20T22:20:44.380Z,2.70
2023-10-20T22:23:11.771Z,2.50
2023-10-20T22:25:39.783Z,2.47
2023-10-20T22:28:07.254Z,2.20
2023-10-20T22:30:34.044Z,2.33
2023-10-20T22:33:01.044Z,1.57
2023-10-20T22:35:27.827Z,2.83
2023-10-20T22:37:54.725Z,2.13
2023-10-20T22:40:22.390Z,2.30
2023-10-20T22:42:49.183Z,2.97
2023-10-20T22:45:16.078Z,2.70
2023-10-20T22:47:42.940Z,2.40
2023-10-20T22:50:10.199Z,2.57
2023-10-20T22:52:36.872Z,2.47
2023-10-20T22:55:05.016Z,2.13
2023-10-20T22:57:33.246Z,2.50
2023-10-20T23:00:00.209Z,2.10
2023-10-20T23:02:27.192Z,2.10
2023-10-20T23:04:54.169Z,2.13
2023-10-20T23:07:20.808Z,2.40
2023-10-20T23:09:47.801Z,2.50
2023-10-20T23:12:14.629Z,2.27
2023-10-20T23:14:41.515Z,2.60
2023-10-20T23:17:09.198Z,2.90
2023-10-20T23:19:36.039Z,2.80
2023-10-20T23:22:03.136Z,2.23
2023-10-20T23:24:29.817Z,2.00
2023-10-20T23:26:56.547Z,2.20
2023-10-20T23:29:24.494Z,2.20
2023-10-20T23:31:51.227Z,2.30
2023-10-20T23:34:18.123Z,2.87
2023-10-20T23:36:44.778Z,2.50
2023-10-20T23:39:11.508Z,2.70
2023-10-20T23:41:38.311Z,2.53
2023-10-20T23:44:05.354Z,2.47
2023-10-20T23:46:32.150Z,3.00
2023-10-20T23:48:58.954Z,2.93
2023-10-20T23:51:25.710Z,3.00
2023-10-20T23:53:52.427Z,3.00
2023-10-20T23:56:19.067Z,2.77
2023-10-20T23:58:45.800Z,3.33
